createdAt,value
2022-11-22T00:00:15.917Z,17.40
2022-11-22T00:02:42.968Z,19.08
2022-11-22T00:05:09.803Z,18.27
2022-11-22T00:07:38.232Z,19.05
2022-11-22T00:10:07.067Z,17.02
2022-11-22T00:12:33.944Z,17.77
2022-11-22T00:15:00.516Z,18.27
2022-11-22T00:17:27.207Z,17.10
2022-11-22T00:19:54.032Z,17.00
2022-11-22T00:22:20.834Z,18.20
2022-11-22T00:24:47.612Z,16.85
2022-11-22T00:27:14.484Z,17.83
2022-11-22T00:29:40.999Z,17.35
2022-11-22T00:32:07.882Z,16.50
2022-11-22T00:34:34.659Z,16.02
2022-11-22T00:37:01.583Z,17.38
2022-11-22T00:39:28.318Z,16.45
2022-11-22T00:41:55.562Z,16.48
2022-11-22T00:44:22.291Z,16.55
2022-11-22T00:46:48.893Z,16.48
2022-11-22T00:49:15.848Z,17.30
2022-11-22T00:51:42.598Z,16.33
2022-11-22T00:54:10.227Z,16.42
2022-11-22T00:56:36.955Z,16.13
2022-11-22T00:59:03.614Z,16.48
2022-11-22T01:01:30.376Z,16.15
2022-11-22T01:03:57.011Z,17.10
2022-11-22T01:06:23.582Z,16.80
2022-11-22T01:08:50.142Z,16.88
2022-11-22T01:11:19.022Z,15.43
2022-11-22T01:13:46.055Z,15.52
2022-11-22T01:16:13.617Z,15.68
2022-11-22T01:18:40.579Z,15.60
2022-11-22T01:21:07.546Z,14.88
2022-11-22T01:23:34.732Z,15.68
2022-11-22T01:26:02.124Z,15.63
2022-11-22T01:28:29.058Z,15.65
2022-11-22T01:30:55.931Z,15.00
2022-11-22T01:33:22.653Z,15.73
2022-11-22T01:35:49.271Z,15.13
2022-11-22T01:38:16.003Z,14.75
2022-11-22T01:40:43.201Z,14.63
2022-11-22T01:43:17.128Z,14.57
2022-11-22T01:45:50.496Z,14.77
2022-11-22T01:48:35.822Z,15.60
2022-11-22T01:51:09.244Z,15.25
2022-11-22T01:53:39.053Z,15.25
2022-11-22T01:56:10.218Z,15.38
2022-11-22T01:58:40.356Z,14.93
2022-11-22T02:01:07.754Z,14.77
2022-11-22T02:03:36.375Z,15.00
2022-11-22T02:06:03.534Z,14.18
2022-11-22T02:08:37.835Z,14.75
2022-11-22T02:11:05.598Z,15.57
2022-11-22T02:13:36.643Z,14.88
2022-11-22T02:16:04.183Z,16.30
2022-11-22T02:18:31.072Z,16.00
2022-11-22T02:20:58.554Z,15.63
2022-11-22T02:23:50.353Z,15.77
2022-11-22T02:26:17.169Z,15.85
2022-11-22T02:28:44.359Z,15.40
2022-11-22T02:31:48.968Z,14.77
2022-11-22T02:34:15.713Z,15.32
2022-11-22T02:36:54.735Z,16.08
2022-11-22T02:39:27.754Z,14.70
2022-11-22T02:41:56.894Z,16.58
2022-11-22T02:44:24.765Z,16.13
2022-11-22T02:46:54.012Z,15.90
2022-11-22T02:49:22.889Z,17.17
2022-11-22T02:51:50.759Z,15.23
2022-11-22T02:54:17.710Z,15.77
2022-11-22T02:56:44.621Z,15.90
2022-11-22T02:59:11.366Z,15.43
2022-11-22T03:01:38.166Z,14.88
2022-11-22T03:04:05.421Z,16.23
2022-11-22T03:06:32.007Z,15.43
2022-11-22T03:08:58.613Z,15.77
2022-11-22T03:11:25.395Z,15.88
2022-11-22T03:13:52.108Z,14.30
2022-11-22T03:16:18.951Z,15.98
2022-11-22T03:18:45.693Z,15.32
2022-11-22T03:21:12.334Z,14.85
2022-11-22T03:23:39.053Z,15.05
2022-11-22T03:26:11.052Z,15.13
2022-11-22T03:28:37.743Z,15.52
2022-11-22T03:31:06.478Z,14.85
2022-11-22T03:33:34.625Z,15.27
2022-11-22T03:36:02.087Z,14.60
2022-11-22T03:38:28.935Z,15.88
2022-11-22T03:40:55.947Z,14.75
2022-11-22T03:43:23.596Z,15.32
2022-11-22T03:45:50.289Z,15.20
2022-11-22T03:48:17.535Z,15.10
2022-11-22T03:50:44.862Z,15.85
2022-11-22T03:53:12.251Z,16.00
2022-11-22T03:55:39.495Z,14.77
2022-11-22T03:58:06.672Z,14.73
2022-11-22T04:00:34.992Z,14.95
2022-11-22T04:03:02.389Z,15.88
2022-11-22T04:05:28.915Z,13.93
2022-11-22T04:07:58.836Z,15.40
2022-11-22T04:10:26.264Z,14.27
2022-11-22T04:12:57.450Z,14.60
2022-11-22T04:15:24.439Z,14.68
2022-11-22T04:17:51.076Z,14.40
2022-11-22T04:20:41.619Z,14.77
2022-11-22T04:23:09.850Z,13.85
2022-11-22T04:25:39.083Z,14.75
2022-11-22T04:28:07.595Z,14.00
2022-11-22T04:30:53.353Z,14.40
2022-11-22T04:33:20.973Z,14.40
2022-11-22T04:35:48.579Z,15.05
2022-11-22T04:38:17.276Z,13.93
2022-11-22T04:40:44.000Z,14.40
2022-11-22T04:43:37.652Z,14.20
2022-11-22T04:46:04.463Z,13.57
2022-11-22T04:48:31.099Z,14.63
2022-11-22T04:51:16.117Z,14.88
2022-11-22T04:53:44.506Z,14.60
2022-11-22T04:56:11.711Z,14.00
2022-11-22T04:58:38.672Z,14.70
2022-11-22T05:01:05.423Z,14.38
2022-11-22T05:03:32.305Z,14.13
2022-11-22T05:06:02.819Z,14.68
2022-11-22T05:08:29.879Z,13.70
2022-11-22T05:10:56.750Z,14.38
2022-11-22T05:13:29.956Z,13.40
2022-11-22T05:15:57.600Z,14.20
2022-11-22T05:18:25.684Z,15.15
2022-11-22T05:20:53.006Z,14.63
2022-11-22T05:23:39.929Z,14.60
2022-11-22T05:26:07.150Z,14.65
2022-11-22T05:28:36.704Z,14.23
2022-11-22T05:31:08.675Z,14.77
2022-11-22T05:33:39.962Z,14.10
2022-11-22T05:36:07.152Z,15.52
2022-11-22T05:38:40.743Z,14.95
2022-11-22T05:41:10.024Z,14.52
2022-11-22T05:43:37.691Z,14.80
2022-11-22T05:46:13.059Z,15.77
2022-11-22T05:48:41.924Z,15.05
2022-11-22T05:51:11.329Z,15.52
2022-11-22T05:53:39.013Z,15.05
2022-11-22T05:56:24.439Z,14.82
2022-11-22T05:58:51.683Z,14.57
2022-11-22T06:01:22.915Z,14.93
2022-11-22T06:03:50.612Z,16.30
2022-11-22T06:06:17.314Z,14.77
2022-11-22T06:08:48.489Z,15.57
2022-11-22T06:11:26.640Z,15.18
2022-11-22T06:13:59.137Z,14.43
2022-11-22T06:16:26.803Z,16.17
2022-11-22T06:18:54.351Z,16.58
2022-11-22T06:21:23.692Z,16.02
2022-11-22T06:23:54.589Z,15.63
2022-11-22T06:26:22.919Z,14.80
2022-11-22T06:28:49.946Z,14.60
2022-11-22T06:31:21.907Z,14.30
2022-11-22T06:33:48.588Z,15.13
2022-11-22T06:36:16.467Z,14.55
2022-11-22T06:38:44.334Z,13.52
2022-11-22T06:41:13.357Z,13.70
2022-11-22T06:43:48.030Z,14.75
2022-11-22T06:46:17.570Z,14.25
2022-11-22T06:48:44.345Z,14.20
2022-11-22T06:51:14.079Z,14.32
2022-11-22T06:53:49.210Z,13.30
2022-11-22T06:56:20.096Z,13.77
2022-11-22T06:58:48.485Z,13.15
2022-11-22T07:01:35.999Z,13.70
2022-11-22T07:04:03.814Z,13.13
2022-11-22T07:06:33.338Z,14.18
2022-11-22T07:09:01.400Z,11.82
2022-11-22T07:11:30.168Z,12.88
2022-11-22T07:14:03.537Z,12.38
2022-11-22T07:16:34.277Z,12.45
2022-11-22T07:19:00.957Z,12.90
2022-11-22T07:21:27.992Z,12.38
2022-11-22T07:23:55.956Z,12.90
2022-11-22T07:26:25.736Z,12.38
2022-11-22T07:28:52.943Z,12.45
2022-11-22T07:31:19.999Z,11.65
2022-11-22T07:33:46.666Z,12.02
2022-11-22T07:36:19.152Z,11.27
2022-11-22T07:38:48.010Z,11.55
2022-11-22T07:41:15.445Z,11.65
2022-11-22T07:43:42.453Z,12.10
2022-11-22T07:46:21.707Z,11.90
2022-11-22T07:48:49.802Z,11.60
2022-11-22T07:51:16.985Z,10.95
2022-11-22T07:53:43.643Z,11.25
2022-11-22T07:56:10.283Z,11.68
2022-11-22T07:58:37.725Z,11.60
2022-11-22T08:01:09.177Z,11.75
2022-11-22T08:03:36.848Z,11.95
2022-11-22T08:06:05.254Z,11.40
2022-11-22T08:08:32.097Z,11.85
2022-11-22T08:10:59.010Z,11.60
2022-11-22T08:13:25.909Z,10.93
2022-11-22T08:15:54.717Z,11.07
2022-11-22T08:18:22.755Z,11.35
2022-11-22T08:20:49.297Z,10.73
2022-11-22T08:23:15.906Z,10.90
2022-11-22T08:25:42.598Z,11.27
2022-11-22T08:28:09.153Z,10.25
2022-11-22T08:30:35.706Z,9.82
2022-11-22T08:33:02.378Z,11.25
2022-11-22T08:35:29.015Z,10.70
2022-11-22T08:37:58.924Z,11.10
2022-11-22T08:40:25.533Z,10.73
2022-11-22T08:42:56.585Z,11.30
2022-11-22T08:45:23.536Z,10.48
2022-11-22T08:47:50.441Z,11.05
2022-11-22T08:50:18.288Z,10.65
2022-11-22T08:52:44.849Z,10.82
2022-11-22T08:55:11.451Z,10.75
2022-11-22T08:57:38.104Z,10.02
2022-11-22T09:00:06.417Z,10.85
2022-11-22T09:02:33.010Z,10.60
2022-11-22T09:04:59.613Z,10.75
2022-11-22T09:10:14.190Z,10.95
2022-11-22T09:12:44.538Z,10.98
2022-11-22T09:15:11.204Z,10.50
2022-11-22T09:17:37.727Z,10.32
2022-11-22T09:20:05.323Z,10.00
2022-11-22T09:22:32.390Z,10.48
2022-11-22T09:24:58.996Z,12.35
2022-11-22T09:27:25.706Z,16.77
2022-11-22T09:29:52.397Z,11.18
2022-11-22T09:32:18.911Z,10.93
2022-11-22T09:34:45.614Z,10.82
2022-11-22T09:37:12.747Z,11.25
2022-11-22T09:39:42.591Z,11.00
2022-11-22T09:42:22.300Z,10.70
2022-11-22T09:45:16.449Z,11.27
2022-11-22T09:47:55.876Z,10.45
2022-11-22T09:50:50.384Z,11.68
2022-11-22T09:53:24.946Z,9.90
2022-11-22T09:55:56.230Z,9.52
2022-11-22T09:58:29.377Z,9.15
2022-11-22T10:01:03.047Z,9.27
2022-11-22T10:03:53.038Z,9.73
2022-11-22T10:06:27.481Z,9.98
2022-11-22T10:09:22.051Z,11.00
2022-11-22T10:11:58.327Z,10.32
2022-11-22T10:15:03.035Z,10.20
2022-11-22T10:17:47.980Z,11.98
2022-11-22T10:20:23.570Z,10.95
2022-11-22T10:22:51.022Z,9.85
2022-11-22T10:25:26.630Z,9.63
2022-11-22T10:28:01.860Z,10.00
2022-11-22T10:30:36.558Z,12.82
2022-11-22T10:33:21.752Z,11.85
2022-11-22T10:36:14.707Z,17.40
2022-11-22T10:39:02.762Z,13.15
2022-11-22T10:41:50.100Z,16.25
2022-11-22T10:44:47.937Z,11.30
2022-11-22T10:47:41.845Z,12.10
2022-11-22T10:50:23.789Z,11.15
2022-11-22T10:52:50.704Z,10.85
2022-11-22T10:55:26.119Z,12.57
2022-11-22T10:58:01.505Z,16.10
2022-11-22T11:00:31.808Z,11.48
2022-11-22T11:03:37.466Z,10.60
2022-11-22T11:06:38.046Z,10.85
2022-11-22T11:11:54.817Z,10.30
2022-11-22T11:14:30.391Z,9.57
2022-11-22T11:16:59.433Z,9.68
2022-11-22T11:19:30.795Z,10.13
2022-11-22T11:22:01.993Z,9.93
2022-11-22T11:24:31.209Z,9.75
2022-11-22T11:27:00.517Z,9.00
2022-11-22T11:29:53.085Z,9.20
2022-11-22T11:32:21.267Z,8.85
2022-11-22T11:34:56.109Z,9.50
2022-11-22T11:37:35.369Z,9.80
2022-11-22T11:40:06.147Z,10.18
2022-11-22T11:42:35.269Z,9.00
2022-11-22T11:45:33.921Z,8.82
2022-11-22T11:48:00.687Z,10.82
2022-11-22T11:50:30.138Z,10.43
2022-11-22T11:53:06.004Z,9.93
2022-11-22T11:55:36.496Z,9.27
2022-11-22T11:58:17.617Z,9.43
2022-11-22T12:00:45.426Z,9.40
2022-11-22T12:03:16.608Z,9.52
2022-11-22T12:05:43.387Z,9.52
2022-11-22T12:08:36.708Z,9.52
2022-11-22T12:11:10.049Z,9.70
2022-11-22T12:14:12.330Z,29.38
2022-11-22T12:16:40.115Z,12.98
2022-11-22T12:19:14.585Z,10.38
2022-11-22T12:22:09.302Z,10.02
2022-11-22T12:25:16.542Z,10.10
2022-11-22T12:27:34.916Z,9.65
2022-11-22T12:30:01.854Z,10.23
2022-11-22T12:32:39.974Z,9.48
2022-11-22T12:35:18.090Z,9.18
2022-11-22T12:38:11.432Z,8.90
2022-11-22T12:40:38.356Z,9.00
2022-11-22T12:43:15.780Z,9.25
2022-11-22T12:46:08.910Z,9.38
2022-11-22T12:49:07.220Z,8.88
2022-11-22T12:51:50.035Z,9.70
2022-11-22T12:54:25.614Z,8.80
2022-11-22T12:56:57.792Z,8.05
2022-11-22T12:59:38.777Z,7.85
2022-11-22T13:02:12.796Z,9.50
2022-11-22T13:04:58.985Z,8.63
2022-11-22T13:07:32.123Z,8.45
2022-11-22T13:10:09.101Z,8.48
2022-11-22T13:12:39.310Z,9.10
2022-11-22T13:15:06.830Z,8.65
2022-11-22T13:17:36.235Z,8.68
2022-11-22T13:20:03.410Z,8.93
2022-11-22T13:22:34.670Z,10.90
2022-11-22T13:25:32.632Z,8.85
2022-11-22T13:28:02.768Z,9.18
2022-11-22T13:30:31.045Z,9.90
2022-11-22T13:33:02.247Z,9.25
2022-11-22T13:35:38.936Z,8.82
2022-11-22T13:38:19.290Z,9.65
2022-11-22T13:40:47.730Z,8.70
2022-11-22T13:43:21.227Z,9.32
2022-11-22T13:45:55.405Z,13.63
2022-11-22T13:48:40.739Z,11.55
2022-11-22T13:51:13.483Z,9.63
2022-11-22T13:53:46.168Z,8.50
2022-11-22T13:56:15.892Z,9.85
2022-11-22T13:58:51.001Z,8.85
2022-11-22T14:01:33.649Z,8.95
2022-11-22T14:04:15.820Z,9.27
2022-11-22T14:07:00.812Z,10.75
2022-11-22T14:09:36.944Z,9.27
2022-11-22T14:12:29.623Z,9.40
2022-11-22T14:15:19.541Z,9.25
2022-11-22T14:18:04.772Z,8.48
2022-11-22T14:21:02.957Z,9.25
2022-11-22T14:23:57.197Z,8.43
2022-11-22T14:26:51.504Z,8.38
2022-11-22T14:29:53.545Z,11.88
2022-11-22T14:32:23.339Z,10.90
2022-11-22T14:35:18.088Z,10.85
2022-11-22T14:38:01.957Z,8.38
2022-11-22T14:40:39.703Z,9.57
2022-11-22T14:43:29.858Z,8.77
2022-11-22T14:46:02.404Z,8.90
2022-11-22T14:48:44.993Z,9.57
2022-11-22T14:51:32.493Z,8.57
2022-11-22T14:54:21.584Z,10.65
2022-11-22T14:56:49.457Z,10.38
2022-11-22T14:59:45.408Z,10.07
2022-11-22T15:02:33.658Z,11.32
2022-11-22T15:09:14.914Z,11.10
2022-11-22T15:09:21.961Z,11.95
2022-11-22T15:11:34.958Z,10.40
2022-11-22T15:14:20.415Z,10.27
2022-11-22T15:57:37.621Z,10.27
2022-11-22T16:00:20.819Z,9.90
2022-11-22T16:03:01.597Z,8.95
2022-11-22T16:06:09.244Z,10.27
2022-11-22T16:08:26.428Z,10.93
2022-11-22T16:10:57.684Z,11.68
2022-11-22T16:13:27.324Z,10.95
2022-11-22T16:16:10.316Z,11.65
2022-11-22T16:18:37.957Z,10.13
2022-11-22T16:21:13.568Z,11.50
2022-11-22T16:23:41.646Z,11.85
2022-11-22T16:26:31.768Z,11.07
2022-11-22T16:29:32.212Z,12.27
2022-11-22T16:32:13.253Z,12.80
2022-11-22T16:34:43.929Z,15.45
2022-11-22T16:37:36.372Z,10.88
2022-11-22T16:40:06.087Z,11.18
2022-11-22T16:42:33.336Z,12.30
2022-11-22T16:45:04.048Z,10.63
2022-11-22T16:47:31.323Z,10.68
2022-11-22T16:49:57.836Z,11.63
2022-11-22T16:52:25.007Z,9.52
2022-11-22T16:54:51.589Z,10.15
2022-11-22T16:57:18.565Z,10.98
2022-11-22T16:59:45.127Z,9.77
2022-11-22T17:02:13.748Z,8.52
2022-11-22T17:04:41.372Z,10.65
2022-11-22T17:07:12.177Z,10.52
2022-11-22T17:09:40.067Z,11.30
2022-11-22T17:12:14.517Z,9.65
2022-11-22T17:18:53.324Z,10.30
2022-11-22T17:21:37.253Z,9.63
2022-11-22T17:24:10.050Z,8.93
2022-11-22T17:26:36.876Z,8.88
2022-11-22T17:29:03.469Z,9.23
2022-11-22T17:31:32.965Z,9.77
2022-11-22T17:33:59.643Z,9.90
2022-11-22T17:36:31.818Z,9.88
2022-11-22T17:39:00.288Z,10.55
2022-11-22T17:41:27.597Z,12.13
2022-11-22T17:43:54.394Z,13.45
2022-11-22T17:46:21.038Z,12.32
2022-11-22T17:48:55.219Z,13.02
2022-11-22T17:51:22.326Z,10.73
2022-11-22T17:53:50.119Z,9.07
2022-11-22T17:56:17.071Z,8.90
2022-11-22T17:58:43.997Z,9.00
2022-11-22T18:01:13.168Z,10.60
2022-11-22T18:03:41.105Z,11.48
2022-11-22T18:06:09.007Z,9.65
2022-11-22T18:08:36.242Z,10.82
2022-11-22T18:11:04.192Z,12.13
2022-11-22T18:13:34.296Z,12.18
2022-11-22T18:16:04.056Z,13.10
2022-11-22T18:21:19.162Z,12.85
2022-11-22T18:23:45.883Z,12.82
2022-11-22T18:31:53.225Z,9.40
2022-11-22T18:34:21.299Z,9.48
2022-11-22T18:37:04.649Z,8.52
2022-11-22T18:39:38.012Z,8.48
2022-11-22T18:42:07.369Z,8.27
2022-11-22T18:44:34.196Z,7.95
2022-11-22T18:47:00.849Z,8.48
2022-11-22T18:49:27.711Z,8.27
2022-11-22T18:51:54.391Z,7.93
2022-11-22T18:54:22.182Z,11.13
2022-11-22T18:56:50.499Z,8.48
2022-11-22T18:59:17.413Z,8.63
2022-11-22T19:01:44.008Z,8.65
2022-11-22T19:04:13.643Z,8.23
2022-11-22T19:06:40.658Z,8.80
2022-11-22T19:09:08.363Z,21.25
2022-11-22T19:11:38.016Z,26.13
2022-11-22T19:14:04.855Z,13.27
2022-11-22T19:16:31.854Z,10.18
2022-11-22T19:18:59.307Z,11.10
2022-11-22T19:21:28.301Z,11.95
2022-11-22T19:23:56.688Z,11.63
2022-11-22T19:26:28.518Z,10.32
2022-11-22T19:28:56.438Z,9.57
2022-11-22T19:31:27.876Z,9.60
2022-11-22T19:33:55.348Z,16.50
2022-11-22T19:36:27.876Z,15.38
2022-11-22T19:38:59.702Z,11.18
2022-11-22T19:41:26.778Z,21.90
2022-11-22T19:43:53.637Z,12.68
2022-11-22T19:46:20.496Z,12.73
2022-11-22T19:48:51.809Z,12.30
2022-11-22T19:51:19.219Z,12.82
2022-11-22T19:53:45.793Z,16.20
2022-11-22T19:56:15.207Z,22.30
2022-11-22T19:58:43.457Z,21.23
2022-11-22T20:01:16.558Z,16.98
2022-11-22T20:03:44.351Z,14.45
2022-11-22T20:06:12.845Z,18.10
2022-11-22T20:08:40.238Z,13.70
2022-11-22T20:11:09.940Z,17.85
2022-11-22T20:13:38.989Z,17.13
2022-11-22T20:16:23.522Z,17.58
2022-11-22T20:19:04.588Z,29.70
2022-11-22T20:21:33.336Z,20.23
2022-11-22T20:24:00.779Z,14.80
2022-11-22T20:26:29.116Z,10.70
2022-11-22T20:29:03.832Z,10.23
2022-11-22T20:31:32.227Z,12.48
2022-11-22T20:34:00.765Z,9.60
2022-11-22T20:36:29.672Z,8.25
2022-11-22T20:38:57.229Z,7.20
2022-11-22T20:41:27.870Z,8.23
2022-11-22T20:43:55.387Z,9.00
2022-11-22T20:46:24.743Z,9.93
2022-11-22T20:48:55.261Z,8.90
2022-11-22T20:51:24.465Z,6.75
2022-11-22T20:53:55.096Z,5.38
2022-11-22T20:56:21.901Z,6.13
2022-11-22T20:58:49.152Z,5.97
2022-11-22T21:01:21.424Z,5.25
2022-11-22T21:03:50.849Z,5.03
2022-11-22T21:06:20.815Z,5.82
2022-11-22T21:08:47.861Z,5.72
2022-11-22T21:11:21.852Z,6.13
2022-11-22T21:13:49.332Z,6.00
2022-11-22T21:16:23.893Z,5.38
2022-11-22T21:18:52.234Z,4.90
2022-11-22T21:21:23.121Z,5.10
2022-11-22T21:23:52.363Z,5.03
2022-11-22T21:26:19.360Z,5.32
2022-11-22T21:28:46.124Z,4.88
2022-11-22T21:31:12.856Z,4.88
2022-11-22T21:33:39.494Z,4.95
2022-11-22T21:36:06.891Z,5.25
2022-11-22T21:38:38.471Z,5.43
2022-11-22T21:41:37.684Z,4.93
2022-11-22T21:43:55.902Z,5.10
2022-11-22T21:46:22.698Z,4.60
2022-11-22T21:48:50.387Z,5.25
2022-11-22T21:51:17.266Z,5.35
2022-11-22T21:53:43.935Z,5.53
2022-11-22T21:56:10.506Z,5.32
2022-11-22T21:58:37.146Z,5.32
2022-11-22T22:01:10.912Z,6.30
2022-11-22T22:03:40.167Z,5.25
2022-11-22T22:06:08.278Z,4.97
2022-11-22T22:08:35.715Z,5.05
2022-11-22T22:11:05.064Z,4.90
2022-11-22T22:13:32.078Z,4.75
2022-11-22T22:16:00.946Z,4.93
2022-11-22T22:18:36.124Z,4.70
2022-11-22T22:21:10.241Z,3.80
2022-11-22T22:23:39.442Z,4.22
2022-11-22T22:26:07.962Z,4.07
2022-11-22T22:28:36.897Z,4.20
2022-11-22T22:31:04.581Z,4.07
2022-11-22T22:33:31.627Z,4.50
2022-11-22T22:35:59.236Z,3.70
2022-11-22T22:38:26.377Z,4.07
2022-11-22T22:41:00.219Z,3.58
2022-11-22T22:43:31.703Z,3.90
2022-11-22T22:46:18.738Z,3.05
2022-11-22T22:48:45.737Z,3.35
2022-11-22T22:51:29.013Z,3.45
2022-11-22T22:53:58.973Z,3.40
2022-11-22T22:56:26.172Z,3.25
2022-11-22T22:58:57.197Z,3.47
2022-11-22T23:01:27.762Z,3.17
2022-11-22T23:03:59.442Z,3.10
2022-11-22T23:06:28.898Z,3.00
2022-11-22T23:08:56.280Z,2.80
2022-11-22T23:11:44.372Z,2.38
2022-11-22T23:14:12.819Z,2.33
2022-11-22T23:16:42.624Z,2.50
2022-11-22T23:19:09.610Z,2.38
2022-11-22T23:21:36.755Z,2.80
2022-11-22T23:24:03.870Z,2.47
2022-11-22T23:26:30.626Z,2.55
2022-11-22T23:28:59.144Z,2.63
2022-11-22T23:31:35.070Z,3.05
2022-11-22T23:34:02.192Z,3.47
2022-11-22T23:36:29.344Z,2.85
2022-11-22T23:38:56.185Z,3.00
2022-11-22T23:41:23.953Z,3.10
2022-11-22T23:43:55.746Z,3.05
2022-11-22T23:46:25.952Z,2.95
2022-11-22T23:48:55.089Z,2.88
2022-11-22T23:51:22.201Z,2.97
2022-11-22T23:53:49.139Z,2.95
2022-11-22T23:56:21.599Z,3.42
2022-11-22T23:58:49.174Z,2.38
